Harveys Lake, Pennsylvania
Current Conditions -  °F | °C
As of 7:54 PM on Monday 24 Nov 2014 (Local Time) from KAVP Reporting Station
Few Clouds Few Clouds  
Wind Chill: 64°   Ceiling: Unl
Heat Index: 64°   Visibility: 10mi
Dew Point: 50°   Wind: 12mph
Humidity: 60%   Direction: 220°SW
Pressure: 29.61"   Gusts: 23mph
Location:  41.38°N, 76.02°W
Report Text: KAVP 250054Z 22010G20KT 190V260 10SM FEW090 18/10 A2961 RMK AO2 SLP022 T01780100
Loading
Personal Weather Stations






























Interactive Weather Map New forecast layout! Learn more

10-Day Weather Forecast

Advertisements
Track Severe Weather on mobile